Time;durP1;ratioP1;P1;durP2;ratioP2;P2;SDS_P1;SDS_P2;PMS_P1;PMS_P2;Temp;Humidity;BMP_temperature;BMP_pressure;BME280_temperature;BME280_humidity;BME280_pressure;Samples;Min_cycle;Max_cycle;Signal;HPM_P1;HPM_P2
2021/01/26 00:01:03;;;;;;;441.35;24.10;;;51.50;2227.20;;;;;;5080471;28;20389;-65
2021/01/26 00:03:29;;;;;;;271.85;19.05;;;51.50;2227.20;;;;;;5075856;28;20133;-65
2021/01/26 00:05:55;;;;;;;363.25;22.15;;;51.50;2227.20;;;;;;5074777;28;20525;-65
2021/01/26 00:08:21;;;;;;;426.52;28.08;;;51.40;2227.20;;;;;;5075698;28;20071;-65
2021/01/26 00:10:48;;;;;;;296.08;21.38;;;51.30;2227.20;;;;;;5075771;28;20032;-64
2021/01/26 00:13:14;;;;;;;191.55;15.25;;;51.40;2227.20;;;;;;5077324;28;20036;-64
2021/01/26 00:15:40;;;;;;;305.25;21.48;;;51.30;2227.20;;;;;;5092938;28;20020;-64
2021/01/26 00:18:07;;;;;;;239.68;16.60;;;51.20;2227.20;;;;;;5095851;28;20110;-64
2021/01/26 00:20:33;;;;;;;407.52;25.52;;;51.20;2227.20;;;;;;5095552;28;20070;-65
2021/01/26 00:22:59;;;;;;;388.75;25.92;;;26.50;2201.60;;;;;;5095152;28;20040;-65
2021/01/26 00:25:32;;;;;;;318.70;21.27;;;26.40;2201.60;;;;;;5092454;28;20032;-65
2021/01/26 00:27:58;;;;;;;379.00;24.73;;;26.20;2201.60;;;;;;5093327;28;20043;-64
2021/01/26 00:30:27;;;;;;;330.60;22.98;;;26.10;2201.60;;;;;;5095606;28;20028;-65
2021/01/26 00:32:54;;;;;;;382.77;27.50;;;26.00;2201.60;;;;;;5095750;28;20032;-65
2021/01/26 00:35:22;;;;;;;161.40;17.05;;;25.90;2201.60;;;;;;5095153;28;20020;-65
2021/01/26 00:37:48;;;;;;;111.03;14.20;;;25.90;2201.60;;;;;;5095467;28;20110;-65
2021/01/26 00:40:16;;;;;;;50.38;10.35;;;25.80;2201.60;;;;;;5095529;28;20700;-65
2021/01/26 00:42:42;;;;;;;54.75;11.32;;;25.80;2201.60;;;;;;5095511;28;20134;-65
2021/01/26 00:45:09;;;;;;;31.98;11.00;;;25.70;2201.60;;;;;;5095159;28;20116;-65
2021/01/26 00:47:35;;;;;;;44.22;13.15;;;25.60;2201.60;;;;;;5095382;28;20043;-65
2021/01/26 00:50:01;;;;;;;33.38;11.50;;;0.90;2201.60;;;;;;5095450;28;20054;-65
2021/01/26 00:52:27;;;;;;;20.00;9.90;;;0.90;2201.60;;;;;;5094742;28;20047;-65
2021/01/26 00:54:53;;;;;;;17.13;9.15;;;0.90;2201.60;;;;;;5095329;28;20023;-65
2021/01/26 00:57:21;;;;;;;13.77;7.82;;;0.90;2201.60;;;;;;5095412;28;20066;-65
2021/01/26 00:59:49;;;;;;;15.60;8.57;;;0.80;2201.60;;;;;;5085310;28;20103;-65
2021/01/26 01:02:16;;;;;;;13.80;7.57;;;0.80;2201.60;;;;;;5075333;28;20170;-65
2021/01/26 01:04:42;;;;;;;14.25;8.00;;;0.80;2201.60;;;;;;5075119;28;20044;-65
2021/01/26 01:07:08;;;;;;;13.65;8.10;;;0.80;2201.60;;;;;;5074984;28;20029;-66
2021/01/26 01:09:34;;;;;;;16.00;8.98;;;0.80;2201.60;;;;;;5075201;28;20103;-65
2021/01/26 01:12:00;;;;;;;12.40;7.05;;;0.80;2201.60;;;;;;5074444;28;20036;-66
2021/01/26 01:14:26;;;;;;;13.80;7.63;;;0.90;2201.60;;;;;;5075144;28;20025;-66
2021/01/26 01:16:53;;;;;;;15.75;7.57;;;0.90;2201.60;;;;;;5080254;28;20351;-65
2021/01/26 01:19:19;;;;;;;13.82;8.57;;;0.90;2201.60;;;;;;5074608;28;20078;-66
2021/01/26 01:21:44;;;;;;;14.75;8.15;;;25.60;2201.60;;;;;;5075174;28;20040;-66
2021/01/26 01:24:10;;;;;;;14.98;8.73;;;25.70;2201.60;;;;;;5075402;28;20029;-65
2021/01/26 01:26:36;;;;;;;14.88;8.18;;;25.80;2201.60;;;;;;5074575;28;20107;-66
2021/01/26 01:29:02;;;;;;;13.07;7.78;;;25.80;2201.60;;;;;;5075084;28;20059;-65
2021/01/26 01:31:28;;;;;;;16.33;8.88;;;25.80;2201.60;;;;;;5080316;28;20043;-65
2021/01/26 01:33:54;;;;;;;17.95;8.38;;;25.80;2201.60;;;;;;5096771;28;20123;-66
2021/01/26 01:36:20;;;;;;;15.88;8.88;;;25.90;2201.60;;;;;;5099043;28;20111;-66
2021/01/26 01:38:46;;;;;;;14.85;9.00;;;25.90;2201.60;;;;;;5098916;28;20027;-65
2021/01/26 01:41:11;;;;;;;15.65;8.45;;;26.00;2201.60;;;;;;5095213;28;20028;-66
2021/01/26 01:43:37;;;;;;;14.93;8.98;;;26.10;2201.60;;;;;;5098601;28;20457;-65
2021/01/26 01:46:13;;;;;;;12.57;7.63;;;26.20;2201.60;;;;;;5098920;28;20433;-66
2021/01/26 01:48:40;;;;;;;9.73;6.35;;;26.30;2201.60;;;;;;5098407;28;20440;-66
2021/01/26 01:51:12;;;;;;;10.82;6.50;;;26.30;2201.60;;;;;;5098433;28;20061;-66
2021/01/26 01:53:41;;;;;;;9.98;6.10;;;26.20;2201.60;;;;;;5098717;28;20024;-65
2021/01/26 01:56:27;;;;;;;9.98;5.88;;;26.20;2201.60;;;;;;5098625;28;20490;-65
2021/01/26 01:59:00;;;;;;;13.00;7.50;;;26.20;2201.60;;;;;;5098579;28;20035;-66
2021/01/26 02:01:29;;;;;;;9.88;6.50;;;26.00;2201.60;;;;;;5098377;28;20056;-65
2021/01/26 02:04:00;;;;;;;26.65;6.95;;;26.00;2201.60;;;;;;5098382;28;20027;-66
2021/01/26 02:06:32;;;;;;;22.88;6.20;;;25.90;2201.60;;;;;;5098553;28;20082;-66
2021/01/26 02:09:07;;;;;;;46.60;6.68;;;25.80;2201.60;;;;;;5098493;28;20110;-65
2021/01/26 02:11:33;;;;;;;32.85;6.88;;;25.80;2201.60;;;;;;5098575;28;20089;-65
2021/01/26 02:13:59;;;;;;;28.88;6.20;;;25.80;2201.60;;;;;;5098623;28;20040;-65
2021/01/26 02:16:31;;;;;;;16.65;6.18;;;25.70;2201.60;;;;;;5098079;28;20642;-65
2021/01/26 02:19:25;;;;;;;16.65;6.15;;;25.80;2201.60;;;;;;5098448;28;20028;-65
2021/01/26 02:22:23;;;;;;;16.38;7.25;;;25.70;2201.60;;;;;;5094036;28;20361;-65
2021/01/26 02:25:12;;;;;;;11.27;6.50;;;25.70;2201.60;;;;;;5080945;28;20119;-66
2021/01/26 02:27:59;;;;;;;10.57;5.95;;;25.70;2201.60;;;;;;5098086;28;20410;-66
2021/01/26 02:31:02;;;;;;;11.25;6.38;;;25.70;2201.60;;;;;;5097692;28;20440;-65
2021/01/26 02:34:04;;;;;;;9.05;5.43;;;25.60;2201.60;;;;;;5098128;28;20032;-65
2021/01/26 02:36:51;;;;;;;12.15;6.55;;;25.70;2201.60;;;;;;5097798;28;20427;-65
2021/01/26 02:39:44;;;;;;;7.95;5.63;;;25.80;2201.60;;;;;;5098019;28;20436;-64
2021/01/26 02:42:47;;;;;;;8.43;5.13;;;25.90;2201.60;;;;;;5098084;28;20081;-64
2021/01/26 02:46:07;;;;;;;8.10;4.88;;;25.90;2201.60;;;;;;5096768;28;20031;-65
2021/01/26 02:48:47;;;;;;;6.70;4.38;;;25.90;2201.60;;;;;;5085034;28;20034;-65
2021/01/26 02:51:30;;;;;;;6.97;4.47;;;25.90;2201.60;;;;;;5097555;28;20060;-65
2021/01/26 02:54:05;;;;;;;6.63;4.40;;;25.90;2201.60;;;;;;5097927;28;20085;-65
2021/01/26 02:56:50;;;;;;;6.53;4.28;;;25.90;2201.60;;;;;;5097542;28;20024;-66
2021/01/26 02:59:46;;;;;;;7.70;4.20;;;25.90;2201.60;;;;;;5097343;28;20409;-66
2021/01/26 03:02:24;;;;;;;6.05;4.10;;;25.90;2201.60;;;;;;5097847;28;20072;-65
2021/01/26 03:05:14;;;;;;;6.25;3.95;;;25.80;2201.60;;;;;;5097283;28;20217;-66
2021/01/26 03:07:47;;;;;;;5.75;3.78;;;25.80;2201.60;;;;;;5097650;28;20023;-65
2021/01/26 03:10:18;;;;;;;8.63;4.55;;;25.70;2201.60;;;;;;5097185;28;20153;-65
2021/01/26 03:12:54;;;;;;;7.85;4.80;;;25.80;2201.60;;;;;;5097081;28;20031;-64
2021/01/26 03:15:23;;;;;;;7.43;4.38;;;25.80;2201.60;;;;;;5097213;28;20556;-65
2021/01/26 03:17:55;;;;;;;;;;;25.70;2201.60;;;;;;5097426;28;20051;-65
2021/01/26 03:20:46;;;;;;;8.40;5.13;;;25.70;2201.60;;;;;;5096623;28;20229;-65
2021/01/26 03:23:26;;;;;;;8.55;4.78;;;25.80;2201.60;;;;;;5097213;28;20020;-65
2021/01/26 03:25:53;;;;;;;8.98;5.32;;;25.70;2201.60;;;;;;5095279;28;20052;-65
2021/01/26 03:28:26;;;;;;;7.90;4.80;;;25.70;2201.60;;;;;;5099734;28;20030;-65
2021/01/26 03:30:57;;;;;;;11.38;5.32;;;25.70;2201.60;;;;;;5099324;28;20129;-64
2021/01/26 03:33:32;;;;;;;7.78;5.28;;;25.70;2201.60;;;;;;5098795;28;20024;-65
2021/01/26 03:35:59;;;;;;;9.23;5.50;;;25.70;2201.60;;;;;;5078564;28;20037;-65
2021/01/26 03:38:28;;;;;;;8.07;5.05;;;25.70;2201.60;;;;;;5078952;28;20031;-65
2021/01/26 03:40:56;;;;;;;8.23;4.75;;;25.60;2201.60;;;;;;5078652;28;20024;-65
2021/01/26 03:43:23;;;;;;;7.70;5.20;;;0.90;2201.60;;;;;;5078865;28;20027;-65
2021/01/26 03:45:59;;;;;;;9.68;5.70;;;25.60;2201.60;;;;;;5077926;28;20256;-65
2021/01/26 03:48:40;;;;;;;34.55;6.03;;;0.90;2201.60;;;;;;5078550;28;20031;-65
2021/01/26 03:51:12;;;;;;;10.85;5.93;;;0.80;2201.60;;;;;;5078374;28;20154;-66
2021/01/26 03:53:47;;;;;;;8.75;6.05;;;0.80;2201.60;;;;;;5078375;28;20028;-66
2021/01/26 03:56:37;;;;;;;13.25;6.32;;;0.80;2201.60;;;;;;5077478;28;20025;-65
2021/01/26 03:59:05;;;;;;;12.43;7.15;;;0.70;2201.60;;;;;;5076821;28;20111;-65
2021/01/26 04:01:47;;;;;;;15.13;8.60;;;0.60;2201.60;;;;;;5077923;28;20032;-66
2021/01/26 04:04:24;;;;;;;12.80;7.95;;;0.70;2201.60;;;;;;5078212;28;20043;-65
2021/01/26 04:06:58;;;;;;;14.60;8.57;;;0.70;2201.60;;;;;;5077847;28;20044;-65
2021/01/26 04:09:31;;;;;;;14.23;8.25;;;0.70;2201.60;;;;;;5078148;28;20402;-66
2021/01/26 04:12:14;;;;;;;12.88;8.02;;;0.70;2201.60;;;;;;5077958;28;20031;-65
2021/01/26 04:14:52;;;;;;;11.48;7.38;;;0.80;2201.60;;;;;;5077733;28;20028;-65
2021/01/26 04:17:25;;;;;;;11.85;7.25;;;0.70;2201.60;;;;;;5078209;28;20028;-65
2021/01/26 04:20:19;;;;;;;10.80;6.60;;;0.70;2201.60;;;;;;5077929;28;20425;-66
2021/01/26 04:22:50;;;;;;;10.52;6.47;;;0.80;2201.60;;;;;;5093373;28;20430;-66
2021/01/26 04:25:37;;;;;;;8.85;6.05;;;0.80;2201.60;;;;;;5097792;28;20112;-66
2021/01/26 04:28:10;;;;;;;9.40;5.93;;;0.70;2201.60;;;;;;5097779;28;20028;-66
2021/01/26 04:30:36;;;;;;;10.57;6.68;;;0.80;2201.60;;;;;;5094457;28;20037;-66
2021/01/26 04:33:08;;;;;;;10.93;6.53;;;0.80;2201.60;;;;;;5097899;28;20039;-65
2021/01/26 04:35:35;;;;;;;10.73;6.90;;;0.70;2201.60;;;;;;5097394;28;20119;-66
2021/01/26 04:38:01;;;;;;;12.23;7.43;;;0.70;2201.60;;;;;;5098154;28;20056;-66
2021/01/26 04:40:29;;;;;;;12.90;7.50;;;0.70;2201.60;;;;;;5098081;28;20023;-66
2021/01/26 04:43:29;;;;;;;12.63;7.57;;;0.70;2201.60;;;;;;5086656;28;20077;-66
2021/01/26 04:46:30;;;;;;;12.57;8.07;;;0.80;2201.60;;;;;;5087703;28;20036;-65
2021/01/26 04:49:17;;;;;;;13.40;8.52;;;0.80;2201.60;;;;;;5097218;28;20474;-65
2021/01/26 04:52:03;;;;;;;15.38;10.50;;;0.80;2201.60;;;;;;5097876;28;20024;-65
2021/01/26 04:54:42;;;;;;;17.63;10.45;;;0.80;2201.60;;;;;;5095519;28;20028;-66
2021/01/26 04:57:26;;;;;;;17.50;9.73;;;0.80;2201.60;;;;;;5084523;28;20452;-65
2021/01/26 05:00:03;;;;;;;16.75;9.88;;;0.70;2201.60;;;;;;5087739;28;20026;-66
2021/01/26 05:02:41;;;;;;;19.88;11.35;;;0.70;2201.60;;;;;;5085270;28;20071;-65
2021/01/26 05:05:11;;;;;;;19.80;12.07;;;0.60;2201.60;;;;;;5077010;28;20499;-66
2021/01/26 05:07:44;;;;;;;19.05;11.55;;;0.70;2201.60;;;;;;5077128;28;20380;-65
2021/01/26 05:10:15;;;;;;;20.80;11.88;;;0.70;2201.60;;;;;;5076610;28;20020;-65
2021/01/26 05:12:52;;;;;;;18.27;11.40;;;0.70;2201.60;;;;;;5084351;28;20044;-65
2021/01/26 05:15:26;;;;;;;23.08;13.05;;;0.80;2201.60;;;;;;5086668;28;20052;-66
2021/01/26 05:18:16;;;;;;;21.52;13.25;;;0.80;2201.60;;;;;;5090524;28;20103;-65
2021/01/26 05:20:51;;;;;;;22.33;13.13;;;0.80;2201.60;;;;;;5095503;28;20044;-66
2021/01/26 05:23:21;;;;;;;22.05;13.13;;;0.80;2201.60;;;;;;5095676;28;20051;-65
2021/01/26 05:25:49;;;;;;;28.80;15.23;;;0.80;2201.60;;;;;;5095638;28;20031;-66
2021/01/26 05:28:18;;;;;;;21.02;12.35;;;0.80;2201.60;;;;;;5096598;28;20047;-65
2021/01/26 05:30:53;;;;;;;21.95;13.18;;;0.80;2201.60;;;;;;5095916;28;20353;-66
2021/01/26 05:33:20;;;;;;;23.02;13.57;;;0.70;2201.60;;;;;;5096346;28;20098;-65
2021/01/26 05:35:54;;;;;;;21.08;12.52;;;0.70;2201.60;;;;;;5096600;28;20024;-66
2021/01/26 05:38:22;;;;;;;25.92;13.63;;;0.80;2201.60;;;;;;5096902;28;20046;-66
2021/01/26 05:40:54;;;;;;;20.83;12.43;;;0.80;2201.60;;;;;;5096829;28;20103;-65
2021/01/26 05:43:23;;;;;;;23.45;13.43;;;0.80;2201.60;;;;;;5097162;28;20073;-66
2021/01/26 05:45:55;;;;;;;25.05;16.38;;;0.80;2201.60;;;;;;5096879;28;20024;-65
2021/01/26 05:48:24;;;;;;;21.85;14.13;;;0.80;2201.60;;;;;;5096933;28;20028;-66
2021/01/26 05:50:52;;;;;;;21.95;12.93;;;0.80;2201.60;;;;;;5096929;28;20028;-65
2021/01/26 05:53:24;;;;;;;20.20;12.55;;;0.80;2201.60;;;;;;5096786;28;20119;-66
2021/01/26 05:56:23;;;;;;;21.17;12.43;;;0.90;2201.60;;;;;;5096991;28;20030;-65
2021/01/26 05:58:45;;;;;;;20.15;12.27;;;0.80;2201.60;;;;;;5096731;28;20064;-66
2021/01/26 06:01:23;;;;;;;20.75;12.73;;;0.80;2201.60;;;;;;5096570;28;20122;-66
2021/01/26 06:04:34;;;;;;;19.98;11.77;;;0.80;2201.60;;;;;;5096717;28;20414;-66
2021/01/26 06:07:01;;;;;;;20.77;12.23;;;0.80;2201.60;;;;;;5054385;28;20041;-66
2021/01/26 06:09:35;;;;;;;16.88;10.25;;;0.80;2201.60;;;;;;5054546;28;20044;-65
2021/01/26 06:12:12;;;;;;;20.58;12.60;;;0.80;2201.60;;;;;;5054564;28;20037;-66
2021/01/26 06:14:40;;;;;;;20.70;11.93;;;0.80;2201.60;;;;;;5054295;28;20141;-65
2021/01/26 06:17:21;;;;;;;19.73;11.93;;;0.80;2201.60;;;;;;5054223;28;20448;-65
2021/01/26 06:20:13;;;;;;;22.30;13.02;;;0.70;2201.60;;;;;;5054606;28;20032;-66
2021/01/26 06:22:39;;;;;;;22.13;12.73;;;0.80;2201.60;;;;;;5053215;28;20438;-65
2021/01/26 06:25:11;;;;;;;16.45;10.18;;;0.80;2201.60;;;;;;5055702;28;20025;-65
2021/01/26 06:27:46;;;;;;;18.90;11.50;;;0.90;2201.60;;;;;;5055929;28;20037;-65
2021/01/26 06:30:36;;;;;;;18.33;10.82;;;0.90;2201.60;;;;;;5057230;28;20032;-65
2021/01/26 06:33:32;;;;;;;19.73;11.50;;;0.90;2201.60;;;;;;5057122;28;20033;-65
2021/01/26 06:36:32;;;;;;;15.32;9.70;;;0.90;2201.60;;;;;;5057329;28;20442;-66
2021/01/26 06:39:03;;;;;;;17.35;10.23;;;25.60;2201.60;;;;;;5057571;28;20071;-65
2021/01/26 06:41:35;;;;;;;20.85;11.75;;;25.60;2201.60;;;;;;5090685;28;20039;-66
2021/01/26 06:44:11;;;;;;;18.75;10.68;;;25.60;2201.60;;;;;;5100315;28;20034;-66
2021/01/26 06:47:11;;;;;;;17.67;11.02;;;25.70;2201.60;;;;;;5100033;28;20024;-66
2021/01/26 06:49:44;;;;;;;16.20;10.13;;;25.70;2201.60;;;;;;5099678;28;20110;-64
2021/01/26 06:52:31;;;;;;;15.02;10.10;;;25.80;2201.60;;;;;;5099788;28;20390;-66
2021/01/26 06:55:12;;;;;;;17.52;10.35;;;25.70;2201.60;;;;;;5099828;28;20024;-65
2021/01/26 06:58:05;;;;;;;14.80;9.20;;;25.70;2201.60;;;;;;5100408;28;20039;-65
2021/01/26 07:01:02;;;;;;;17.85;10.52;;;25.60;2201.60;;;;;;5099707;28;20028;-66
2021/01/26 07:03:37;;;;;;;15.07;8.75;;;25.60;2201.60;;;;;;5099717;28;20024;-65
2021/01/26 07:06:28;;;;;;;13.65;8.38;;;0.90;2201.60;;;;;;5099884;28;20052;-65
2021/01/26 07:09:04;;;;;;;14.10;9.20;;;0.90;2201.60;;;;;;5099224;28;20028;-65
2021/01/26 07:11:43;;;;;;;16.38;9.57;;;0.80;2201.60;;;;;;5099111;28;20114;-66
2021/01/26 07:14:21;;;;;;;19.27;11.55;;;0.70;2201.60;;;;;;5099525;28;20330;-65
2021/01/26 07:17:04;;;;;;;19.23;11.27;;;0.80;2201.60;;;;;;5099414;28;20032;-65
2021/01/26 07:19:44;;;;;;;20.58;11.70;;;0.90;2201.60;;;;;;5099691;28;20341;-65
2021/01/26 07:22:34;;;;;;;16.20;9.88;;;0.90;2201.60;;;;;;5099069;28;20028;-65
2021/01/26 07:25:11;;;;;;;19.52;11.38;;;0.90;2201.60;;;;;;5099257;28;20027;-64
2021/01/26 07:28:16;;;;;;;20.08;11.98;;;25.60;2201.60;;;;;;5099494;28;20055;-65
2021/01/26 07:30:45;;;;;;;21.38;12.60;;;25.70;2201.60;;;;;;5097871;28;20085;-65
2021/01/26 07:33:20;;;;;;;23.40;13.25;;;25.70;2201.60;;;;;;5098990;28;20028;-64
2021/01/26 07:36:07;;;;;;;23.92;14.68;;;25.80;2201.60;;;;;;5099070;28;20035;-65
2021/01/26 07:38:41;;;;;;;22.27;14.38;;;25.90;2201.60;;;;;;5098731;28;20025;-65
2021/01/26 07:41:25;;;;;;;18.00;11.93;;;26.00;2201.60;;;;;;5099174;28;20032;-64
2021/01/26 07:44:18;;;;;;;18.38;11.25;;;26.10;2201.60;;;;;;5098395;28;20342;-64
2021/01/26 07:47:08;;;;;;;17.13;10.70;;;26.30;2201.60;;;;;;5098838;28;20031;-64
2021/01/26 07:49:53;;;;;;;17.42;10.23;;;26.50;2201.60;;;;;;5099059;28;20027;-64
2021/01/26 07:52:20;;;;;;;15.40;8.23;;;26.50;2201.60;;;;;;5098435;28;20070;-64
2021/01/26 07:55:01;;;;;;;17.50;10.30;;;26.40;2201.60;;;;;;5098604;28;20028;-64
2021/01/26 07:57:35;;;;;;;17.70;10.30;;;26.50;2201.60;;;;;;5098885;28;20024;-66
2021/01/26 08:00:03;;;;;;;13.10;9.10;;;51.20;2227.20;;;;;;5098033;28;20356;-65
2021/01/26 08:02:35;;;;;;;15.48;9.30;;;26.50;2201.60;;;;;;5098442;28;20479;-66
2021/01/26 08:05:12;;;;;;;11.93;8.27;;;51.20;2227.20;;;;;;5097698;28;20071;-66
2021/01/26 08:07:38;;;;;;;13.25;8.68;;;51.20;2227.20;;;;;;5098478;28;20022;-65
2021/01/26 08:10:06;;;;;;;16.02;9.35;;;26.50;2201.60;;;;;;5098213;28;20028;-64
2021/01/26 08:12:32;;;;;;;14.02;8.70;;;26.40;2201.60;;;;;;5097625;28;20032;-65
2021/01/26 08:15:20;;;;;;;15.45;9.68;;;26.50;2201.60;;;;;;5098376;28;20035;-64
2021/01/26 08:17:47;;;;;;;14.52;9.05;;;26.50;2201.60;;;;;;5055149;28;20040;-65
2021/01/26 08:20:16;;;;;;;16.88;10.63;;;51.20;2227.20;;;;;;5055246;28;20039;-65
2021/01/26 08:22:47;;;;;;;16.10;10.30;;;51.20;2227.20;;;;;;5055295;28;20044;-65
2021/01/26 08:25:28;;;;;;;18.52;11.18;;;51.40;2227.20;;;;;;5055557;28;20155;-64
2021/01/26 08:28:04;;;;;;;18.88;10.38;;;51.40;2227.20;;;;;;5054910;28;20032;-65
2021/01/26 08:30:36;;;;;;;15.02;9.27;;;51.40;2227.20;;;;;;5055367;28;20492;-64
2021/01/26 08:33:10;;;;;;;15.85;9.45;;;51.40;2227.20;;;;;;5054883;28;20037;-65
2021/01/26 08:35:43;;;;;;;22.17;9.35;;;51.40;2227.20;;;;;;5055633;28;20033;-64
2021/01/26 08:38:30;;;;;;;16.80;9.48;;;51.40;2227.20;;;;;;5055684;28;20407;-64
2021/01/26 08:40:58;;;;;;;16.42;10.18;;;51.20;2227.20;;;;;;5054601;28;20182;-65
2021/01/26 08:43:45;;;;;;;16.73;10.15;;;51.20;2227.20;;;;;;5054926;28;20107;-66
2021/01/26 08:46:28;;;;;;;18.60;10.88;;;51.20;2227.20;;;;;;5055455;28;20037;-64
2021/01/26 08:49:05;;;;;;;21.20;12.07;;;26.40;2201.60;;;;;;5054826;28;20037;-64
2021/01/26 08:51:31;;;;;;;22.75;13.00;;;26.50;2201.60;;;;;;5051648;28;20072;-66
2021/01/26 08:53:57;;;;;;;23.48;14.48;;;26.50;2201.60;;;;;;5050315;28;20039;-65
2021/01/26 08:56:23;;;;;;;28.15;14.43;;;26.50;2201.60;;;;;;5087414;28;20024;-65
2021/01/26 08:58:51;;;;;;;25.48;14.85;;;26.50;2201.60;;;;;;5085943;28;20318;-65
2021/01/26 09:01:23;;;;;;;24.15;14.18;;;26.50;2201.60;;;;;;5085037;28;20043;-64
2021/01/26 09:03:50;;;;;;;27.80;15.45;;;26.50;2201.60;;;;;;5085871;28;20115;-66
2021/01/26 09:06:39;;;;;;;26.80;15.23;;;26.50;2201.60;;;;;;5085425;28;20103;-64
2021/01/26 09:09:25;;;;;;;;;;;26.50;2201.60;;;;;;5077980;28;20036;-64
2021/01/26 09:12:18;;;;;;;27.02;16.10;;;26.50;2201.60;;;;;;5073188;28;19915;-64
2021/01/26 09:14:44;;;;;;;28.38;16.13;;;26.50;2201.60;;;;;;5076044;28;20048;-65
2021/01/26 09:17:11;;;;;;;31.05;18.30;;;51.20;2227.20;;;;;;5075802;28;20025;-66
2021/01/26 09:19:51;;;;;;;35.30;19.48;;;51.20;2227.20;;;;;;5077137;28;20021;-66
2021/01/26 09:22:29;;;;;;;29.38;16.73;;;51.30;2227.20;;;;;;5076879;28;20028;-65
2021/01/26 09:25:02;;;;;;;33.28;19.20;;;51.40;2227.20;;;;;;5076772;28;20035;-65
2021/01/26 09:27:34;;;;;;;32.80;18.90;;;51.30;2227.20;;;;;;5077048;28;20055;-65
2021/01/26 09:30:22;;;;;;;33.40;19.60;;;51.40;2227.20;;;;;;5076776;28;20048;-64
2021/01/26 09:33:04;;;;;;;33.90;18.42;;;51.40;2227.20;;;;;;5077026;28;20031;-65
2021/01/26 09:35:51;;;;;;;34.75;19.42;;;51.50;2227.20;;;;;;5077271;28;20035;-66
2021/01/26 09:38:21;;;;;;;36.88;20.35;;;51.40;2227.20;;;;;;5076992;28;20051;-64
2021/01/26 09:40:59;;;;;;;36.08;19.50;;;51.30;2227.20;;;;;;5076950;28;20029;-65
2021/01/26 09:43:48;;;;;;;33.90;18.58;;;51.20;2227.20;;;;;;5077224;28;20028;-65
2021/01/26 09:46:35;;;;;;;35.70;18.80;;;51.20;2227.20;;;;;;5077218;28;20060;-65
2021/01/26 09:49:27;;;;;;;32.22;18.63;;;51.20;2227.20;;;;;;5077194;28;20050;-66
2021/01/26 09:52:10;;;;;;;31.20;18.63;;;51.20;2227.20;;;;;;5076968;28;20129;-64
2021/01/26 09:54:41;;;;;;;40.30;18.63;;;26.50;2201.60;;;;;;5076872;28;20035;-64
2021/01/26 09:57:13;;;;;;;35.50;19.65;;;51.30;2227.20;;;;;;5082919;28;20036;-66
2021/01/26 09:59:39;;;;;;;35.05;18.73;;;51.40;2227.20;;;;;;5086667;28;20032;-65
2021/01/26 10:02:08;;;;;;;32.88;19.67;;;51.40;2227.20;;;;;;5079997;28;20025;-65
2021/01/26 10:04:36;;;;;;;36.30;20.58;;;51.40;2227.20;;;;;;5080457;28;20111;-64
2021/01/26 10:07:09;;;;;;;34.63;18.52;;;51.30;2227.20;;;;;;5079961;28;20039;-65
2021/01/26 10:09:36;;;;;;;34.33;20.13;;;51.20;2227.20;;;;;;5080372;28;20046;-65
2021/01/26 10:12:33;;;;;;;33.03;18.63;;;51.20;2227.20;;;;;;5079776;28;20036;-65
2021/01/26 10:15:23;;;;;;;35.80;20.48;;;51.20;2227.20;;;;;;5080049;28;20025;-66
2021/01/26 10:17:53;;;;;;;31.20;18.80;;;51.40;2227.20;;;;;;5080268;28;20299;-65
2021/01/26 10:20:32;;;;;;;36.95;20.85;;;51.60;2227.20;;;;;;5080272;28;20032;-65
2021/01/26 10:23:11;;;;;;;32.85;18.90;;;51.80;2227.20;;;;;;5080285;28;20035;-64
2021/01/26 10:25:38;;;;;;;;;;;51.90;2227.20;;;;;;5080583;28;20029;-66
2021/01/26 10:28:10;;;;;;;32.10;19.70;;;52.00;2227.20;;;;;;5085506;28;19904;-70
2021/01/26 10:30:45;;;;;;;31.23;18.63;;;52.00;2227.20;;;;;;5098697;28;20417;-64
2021/01/26 10:33:28;;;;;;;33.95;19.55;;;51.90;2227.20;;;;;;5100071;28;20032;-63
2021/01/26 10:35:53;;;;;;;32.60;19.17;;;52.00;2227.20;;;;;;5099797;28;20069;-64
2021/01/26 10:38:30;;;;;;;35.05;18.50;;;51.90;2227.20;;;;;;5100058;28;20379;-63
2021/01/26 10:41:25;;;;;;;28.65;17.23;;;51.80;2227.20;;;;;;5100302;28;20028;-64
2021/01/26 10:44:20;;;;;;;31.33;17.17;;;51.80;2227.20;;;;;;5094691;28;20467;-66
2021/01/26 10:46:49;;;;;;;31.00;16.75;;;51.80;2227.20;;;;;;5057150;28;20041;-64
2021/01/26 10:49:24;;;;;;;;;;;51.90;2227.20;;;;;;5057944;28;20021;-65
2021/01/26 10:51:50;;;;;;;27.83;16.27;;;51.70;2227.20;;;;;;5056747;28;19915;-64
2021/01/26 10:54:16;;;;;;;27.38;15.50;;;51.40;2227.20;;;;;;5057381;28;20036;-65
2021/01/26 10:56:43;;;;;;;31.02;16.15;;;51.40;2227.20;;;;;;5056666;28;20043;-65
2021/01/26 10:59:09;;;;;;;31.33;17.45;;;51.30;2227.20;;;;;;5057041;28;20535;-65
2021/01/26 11:01:36;;;;;;;27.63;16.60;;;51.30;2227.20;;;;;;5056864;28;20052;-65
2021/01/26 11:04:02;;;;;;;28.80;17.15;;;51.40;2227.20;;;;;;5056851;28;20033;-65
2021/01/26 11:06:28;;;;;;;27.90;16.52;;;51.50;2227.20;;;;;;5053884;28;20118;-66
2021/01/26 11:08:55;;;;;;;28.02;17.63;;;51.40;2227.20;;;;;;5046573;28;20454;-66
2021/01/26 11:11:26;;;;;;;28.88;16.20;;;51.30;2227.20;;;;;;5044479;28;20350;-65
2021/01/26 11:13:54;;;;;;;24.92;14.77;;;51.20;2227.20;;;;;;5040641;28;20679;-65
2021/01/26 11:16:21;;;;;;;27.13;16.40;;;51.20;2227.20;;;;;;5045453;28;20371;-65
2021/01/26 11:18:47;;;;;;;29.17;16.70;;;26.50;2201.60;;;;;;5042713;28;20104;-66
2021/01/26 11:21:13;;;;;;;25.33;15.45;;;26.50;2201.60;;;;;;5052766;28;20127;-65
2021/01/26 11:23:40;;;;;;;23.92;15.48;;;26.50;2201.60;;;;;;5086431;28;20138;-65
2021/01/26 11:26:09;;;;;;;27.20;15.80;;;26.50;2201.60;;;;;;5097975;28;20052;-65
2021/01/26 11:28:34;;;;;;;27.60;17.00;;;51.20;2227.20;;;;;;5098194;28;20024;-66
2021/01/26 11:31:01;;;;;;;24.73;14.50;;;51.40;2227.20;;;;;;5098694;28;20422;-66
2021/01/26 11:33:27;;;;;;;25.00;15.13;;;51.60;2227.20;;;;;;5098882;28;20035;-66
2021/01/26 11:35:53;;;;;;;25.90;15.27;;;51.60;2227.20;;;;;;5099102;28;20028;-66
2021/01/26 11:38:21;;;;;;;27.50;14.05;;;51.60;2227.20;;;;;;5098866;28;20020;-66
2021/01/26 11:40:46;;;;;;;25.05;14.93;;;51.80;2227.20;;;;;;5098551;28;20429;-66
2021/01/26 11:43:13;;;;;;;23.60;13.73;;;51.80;2227.20;;;;;;5098472;28;20031;-66
2021/01/26 11:45:39;;;;;;;23.92;15.55;;;51.60;2227.20;;;;;;5098255;28;20027;-65
2021/01/26 11:48:07;;;;;;;25.83;15.77;;;51.40;2227.20;;;;;;5098362;28;20031;-66
2021/01/26 11:50:34;;;;;;;23.73;15.70;;;51.30;2227.20;;;;;;5098569;28;20414;-65
2021/01/26 11:53:14;;;;;;;27.63;16.30;;;51.30;2227.20;;;;;;5098091;28;20028;-65
2021/01/26 11:55:41;;;;;;;28.23;16.23;;;51.20;2227.20;;;;;;5097066;28;20027;-65
2021/01/26 11:58:09;;;;;;;29.35;16.50;;;51.20;2227.20;;;;;;5098343;28;20023;-66
2021/01/26 12:00:37;;;;;;;26.70;15.73;;;51.20;2227.20;;;;;;5097910;28;20027;-65
2021/01/26 12:03:04;;;;;;;26.67;16.58;;;51.20;2227.20;;;;;;5098715;28;20044;-65
2021/01/26 12:05:32;;;;;;;24.38;14.80;;;51.30;2227.20;;;;;;5098371;28;20131;-65
2021/01/26 12:07:58;;;;;;;24.27;15.15;;;51.20;2227.20;;;;;;5098261;28;20032;-66
2021/01/26 12:10:24;;;;;;;23.63;14.57;;;51.30;2227.20;;;;;;5098499;28;20055;-65
2021/01/26 12:12:52;;;;;;;26.02;15.82;;;51.20;2227.20;;;;;;5097872;28;20028;-66
2021/01/26 12:15:22;;;;;;;25.98;15.77;;;51.30;2227.20;;;;;;5097566;28;20039;-65
2021/01/26 12:17:48;;;;;;;25.77;16.00;;;51.20;2227.20;;;;;;5096546;28;20079;-66
2021/01/26 12:20:15;;;;;;;26.17;14.77;;;26.50;2201.60;;;;;;5098134;28;20058;-65
2021/01/26 12:22:40;;;;;;;28.95;16.40;;;51.20;2227.20;;;;;;5097807;28;20421;-65
2021/01/26 12:25:08;;;;;;;25.23;15.35;;;26.50;2201.60;;;;;;5097955;28;20102;-67
2021/01/26 12:27:34;;;;;;;30.58;15.40;;;26.40;2201.60;;;;;;5097495;28;20024;-66
2021/01/26 12:30:00;;;;;;;24.58;14.25;;;26.40;2201.60;;;;;;5097845;28;20026;-66
2021/01/26 12:32:25;;;;;;;22.90;14.57;;;26.40;2201.60;;;;;;5098102;28;20115;-66
2021/01/26 12:34:51;;;;;;;27.08;15.57;;;26.40;2201.60;;;;;;5087203;28;20023;-66
2021/01/26 12:37:19;;;;;;;25.35;15.38;;;26.50;2201.60;;;;;;5084882;28;20029;-66
2021/01/26 12:39:45;;;;;;;27.42;15.93;;;51.20;2227.20;;;;;;5081960;28;20065;-67
2021/01/26 12:42:11;;;;;;;29.27;15.82;;;51.20;2227.20;;;;;;5075287;28;20044;-65
2021/01/26 12:44:46;;;;;;;26.00;15.20;;;26.50;2201.60;;;;;;5080611;28;20020;-68
2021/01/26 12:47:12;;;;;;;26.27;15.15;;;51.20;2227.20;;;;;;5084902;28;20341;-65
2021/01/26 12:49:38;;;;;;;26.20;16.05;;;51.20;2227.20;;;;;;5083772;28;20020;-67
2021/01/26 12:52:05;;;;;;;26.25;15.30;;;51.20;2227.20;;;;;;5084334;28;20031;-65